createdAt,value
2023-08-10T00:09:47.581Z,100921.38
2023-08-10T00:20:11.747Z,100919.84
2023-08-10T00:30:28.857Z,100921.44
2023-08-10T00:40:45.946Z,100923.91
2023-08-10T00:50:50.658Z,100925.47
2023-08-10T01:00:52.759Z,100930.78
2023-08-10T01:11:11.393Z,100934.50
2023-08-10T01:21:46.511Z,100940.34
2023-08-10T01:31:49.603Z,100960.69
2023-08-10T01:41:53.351Z,100967.28
2023-08-10T01:52:00.633Z,100959.91
2023-08-10T02:02:16.913Z,100960.19
2023-08-10T02:12:18.853Z,100970.75
2023-08-10T02:22:23.443Z,100975.47
2023-08-10T02:32:31.400Z,100969.41
2023-08-10T02:42:35.466Z,100975.19
2023-08-10T02:52:37.471Z,100987.03
2023-08-10T03:02:45.874Z,100998.28
2023-08-10T03:12:47.962Z,101007.78
2023-08-10T03:22:57.021Z,101010.66
2023-08-10T03:33:01.079Z,101009.81
2023-08-10T03:43:03.067Z,101019.63
2023-08-10T03:53:05.197Z,101026.88
2023-08-10T04:03:07.277Z,101028.19
2023-08-10T04:13:09.326Z,101032.69
2023-08-10T04:23:12.139Z,101045.88
2023-08-10T04:33:15.305Z,101037.47
2023-08-10T04:43:18.333Z,101050.38
2023-08-10T04:53:24.326Z,101059.00
2023-08-10T05:03:26.337Z,101060.22
2023-08-10T05:13:28.394Z,101088.94
2023-08-10T05:23:30.441Z,101086.34
2023-08-10T05:33:34.949Z,101099.63
2023-08-10T05:43:48.810Z,101112.19
2023-08-10T05:54:04.295Z,101124.06
2023-08-10T06:04:14.937Z,101127.56
2023-08-10T06:14:16.970Z,101132.75
2023-08-10T06:24:31.006Z,101131.06
2023-08-10T06:34:35.848Z,101133.75
2023-08-10T06:44:37.940Z,101137.56
2023-08-10T06:54:41.998Z,101138.72
2023-08-10T07:04:45.791Z,101139.22
2023-08-10T07:14:53.623Z,101145.53
2023-08-10T07:24:57.660Z,101143.72
2023-08-10T07:34:59.848Z,101141.75
2023-08-10T07:45:07.373Z,101142.84
2023-08-10T07:55:09.753Z,101143.06
2023-08-10T08:05:19.405Z,101149.09
2023-08-10T08:15:22.715Z,101145.22
2023-08-10T08:25:30.823Z,101139.19
2023-08-10T08:35:32.965Z,101146.97
2023-08-10T08:45:38.531Z,101149.00
2023-08-10T08:55:41.780Z,101149.72
2023-08-10T09:05:46.682Z,101149.72
2023-08-10T09:16:15.834Z,101160.69
2023-08-10T09:26:19.820Z,101156.44
2023-08-10T09:36:26.884Z,101156.50
2023-08-10T09:46:30.803Z,101155.16
2023-08-10T09:56:33.481Z,101158.16
2023-08-10T10:06:39.142Z,101162.38
2023-08-10T10:16:42.568Z,101160.50
2023-08-10T10:27:03.580Z,101157.91
2023-08-10T10:37:21.833Z,101162.13
2023-08-10T10:47:35.038Z,101151.25
2023-08-10T10:57:40.249Z,101159.25
2023-08-10T11:07:49.093Z,101152.91
2023-08-10T11:17:58.841Z,101131.09
2023-08-10T11:28:02.074Z,101141.19
2023-08-10T11:38:04.255Z,101129.97
2023-08-10T11:48:12.667Z,101125.56
2023-08-10T11:58:17.026Z,101134.59
2023-08-10T12:08:21.308Z,101116.00
2023-08-10T12:18:24.576Z,101116.16
2023-08-10T12:28:27.836Z,101111.31
2023-08-10T12:38:31.893Z,101101.09
2023-08-10T12:48:33.949Z,101104.25
2023-08-10T12:58:38.025Z,101093.41
2023-08-10T13:08:40.093Z,101088.16
2023-08-10T13:18:47.234Z,101080.34
2023-08-10T13:28:50.186Z,101075.97
2023-08-10T13:38:52.293Z,101074.25
2023-08-10T13:48:54.738Z,101069.16
2023-08-10T13:59:10.257Z,101067.47
2023-08-10T14:09:12.409Z,101065.13
2023-08-10T14:19:16.745Z,101058.06
2023-08-10T14:29:18.837Z,101063.94
2023-08-10T14:39:21.893Z,101065.56
2023-08-10T14:49:25.891Z,101066.94
2023-08-10T14:59:27.941Z,101075.59
2023-08-10T15:09:30.983Z,101066.09
2023-08-10T15:19:34.390Z,101060.94
2023-08-10T15:29:36.479Z,101060.09
2023-08-10T15:39:43.895Z,101064.38
2023-08-10T15:49:45.841Z,101075.19
2023-08-10T15:59:48.489Z,101058.75
2023-08-10T16:10:17.282Z,101068.34
2023-08-10T16:20:28.645Z,101073.13
2023-08-10T16:30:32.048Z,101079.06
2023-08-10T16:40:34.026Z,101069.22
2023-08-10T16:50:38.158Z,101088.28
2023-08-10T17:00:40.978Z,101077.72
2023-08-10T17:10:46.028Z,101091.47
2023-08-10T17:20:50.033Z,101100.09
2023-08-10T17:30:54.868Z,101100.88
2023-08-10T17:40:57.052Z,101109.34
2023-08-10T17:51:01.439Z,101112.03
2023-08-10T18:01:08.863Z,101117.66
2023-08-10T18:11:13.256Z,101131.59
2023-08-10T18:21:15.614Z,101132.25
2023-08-10T18:31:18.853Z,101145.88
2023-08-10T18:41:30.594Z,101148.41
2023-08-10T18:51:33.340Z,101151.84
2023-08-10T19:01:38.774Z,101148.94
2023-08-10T19:11:41.413Z,101155.34
2023-08-10T19:21:43.686Z,101166.88
2023-08-10T19:31:48.558Z,101166.88
2023-08-10T19:41:53.610Z,101162.44
2023-08-10T19:51:56.561Z,101173.84
2023-08-10T20:02:01.489Z,101178.97
2023-08-10T20:12:05.655Z,101180.72
2023-08-10T20:22:10.072Z,101184.34
2023-08-10T20:32:12.369Z,101188.56
2023-08-10T20:42:15.085Z,101181.91
2023-08-10T20:52:18.068Z,101190.28
2023-08-10T21:02:22.352Z,101185.00
2023-08-10T21:12:27.549Z,101190.31
2023-08-10T21:22:29.644Z,101184.75
2023-08-10T21:32:40.687Z,101198.69
2023-08-10T21:42:44.724Z,101190.50
2023-08-10T21:52:59.790Z,101190.28
2023-08-10T22:03:10.714Z,101195.19
2023-08-10T22:13:15.408Z,101196.88
2023-08-10T22:23:37.947Z,101204.69
2023-08-10T22:33:40.142Z,101207.56
2023-08-10T22:43:51.910Z,101197.88
2023-08-10T22:53:53.929Z,101196.03
2023-08-10T23:03:55.875Z,101188.66
2023-08-10T23:13:57.841Z,101191.84
2023-08-10T23:23:59.840Z,101188.94
2023-08-10T23:34:11.121Z,101183.66
2023-08-10T23:44:16.685Z,101183.88
2023-08-10T23:54:18.618Z,101171.47
